sensor_id;sensor_type;location;lat;lon;timestamp;P1;durP1;ratioP1;P2;durP2;ratioP2
35478;SDS011;21594;49.794;18.652;2022-07-09T00:00:26;4.30;;;1.50;;
35478;SDS011;21594;49.794;18.652;2022-07-09T00:02:54;7.35;;;1.40;;
35478;SDS011;21594;49.794;18.652;2022-07-09T00:07:49;3.72;;;1.35;;
35478;SDS011;21594;49.794;18.652;2022-07-09T00:10:18;2.55;;;1.20;;
35478;SDS011;21594;49.794;18.652;2022-07-09T00:12:45;6.97;;;1.60;;
35478;SDS011;21594;49.794;18.652;2022-07-09T00:15:11;4.10;;;1.45;;
35478;SDS011;21594;49.794;18.652;2022-07-09T00:17:40;5.47;;;1.60;;
35478;SDS011;21594;49.794;18.652;2022-07-09T00:20:08;3.85;;;1.30;;
35478;SDS011;21594;49.794;18.652;2022-07-09T00:22:36;3.17;;;1.55;;
35478;SDS011;21594;49.794;18.652;2022-07-09T00:25:03;4.37;;;1.32;;
35478;SDS011;21594;49.794;18.652;2022-07-09T00:27:29;2.95;;;1.55;;
35478;SDS011;21594;49.794;18.652;2022-07-09T00:29:56;2.12;;;1.37;;
35478;SDS011;21594;49.794;18.652;2022-07-09T00:32:23;1.80;;;1.45;;
35478;SDS011;21594;49.794;18.652;2022-07-09T00:37:29;5.55;;;1.40;;
35478;SDS011;21594;49.794;18.652;2022-07-09T00:39:55;3.90;;;1.10;;
35478;SDS011;21594;49.794;18.652;2022-07-09T00:42:21;4.17;;;1.67;;
35478;SDS011;21594;49.794;18.652;2022-07-09T00:44:47;5.37;;;1.40;;
35478;SDS011;21594;49.794;18.652;2022-07-09T00:47:13;9.05;;;1.75;;
35478;SDS011;21594;49.794;18.652;2022-07-09T00:49:41;4.87;;;1.57;;
35478;SDS011;21594;49.794;18.652;2022-07-09T00:52:15;4.10;;;1.62;;
35478;SDS011;21594;49.794;18.652;2022-07-09T00:54:44;4.83;;;1.52;;
35478;SDS011;21594;49.794;18.652;2022-07-09T00:57:11;7.10;;;1.85;;
35478;SDS011;21594;49.794;18.652;2022-07-09T00:59:39;4.95;;;1.70;;
35478;SDS011;21594;49.794;18.652;2022-07-09T01:02:09;4.40;;;1.30;;
35478;SDS011;21594;49.794;18.652;2022-07-09T01:04:35;7.47;;;1.87;;
35478;SDS011;21594;49.794;18.652;2022-07-09T01:07:03;5.17;;;2.58;;
35478;SDS011;21594;49.794;18.652;2022-07-09T01:09:32;2.45;;;1.30;;
35478;SDS011;21594;49.794;18.652;2022-07-09T01:11:59;5.35;;;1.60;;
35478;SDS011;21594;49.794;18.652;2022-07-09T01:14:27;4.55;;;1.30;;
35478;SDS011;21594;49.794;18.652;2022-07-09T01:16:57;7.67;;;1.85;;
35478;SDS011;21594;49.794;18.652;2022-07-09T01:19:31;2.03;;;1.30;;
35478;SDS011;21594;49.794;18.652;2022-07-09T01:21:59;3.25;;;1.62;;
35478;SDS011;21594;49.794;18.652;2022-07-09T01:24:27;3.87;;;1.50;;
35478;SDS011;21594;49.794;18.652;2022-07-09T01:26:53;4.67;;;1.37;;
35478;SDS011;21594;49.794;18.652;2022-07-09T01:29:22;2.22;;;1.27;;
35478;SDS011;21594;49.794;18.652;2022-07-09T01:31:50;2.83;;;1.50;;
35478;SDS011;21594;49.794;18.652;2022-07-09T01:34:18;4.03;;;1.45;;
35478;SDS011;21594;49.794;18.652;2022-07-09T01:36:46;3.27;;;1.50;;
35478;SDS011;21594;49.794;18.652;2022-07-09T01:39:18;5.78;;;1.60;;
35478;SDS011;21594;49.794;18.652;2022-07-09T01:41:44;4.33;;;1.60;;
35478;SDS011;21594;49.794;18.652;2022-07-09T01:46:47;6.97;;;1.30;;
35478;SDS011;21594;49.794;18.652;2022-07-09T01:49:15;3.95;;;1.57;;
35478;SDS011;21594;49.794;18.652;2022-07-09T01:51:43;3.05;;;1.27;;
35478;SDS011;21594;49.794;18.652;2022-07-09T01:54:10;2.67;;;1.75;;
35478;SDS011;21594;49.794;18.652;2022-07-09T01:56:36;5.00;;;2.02;;
35478;SDS011;21594;49.794;18.652;2022-07-09T01:59:02;3.20;;;1.20;;
35478;SDS011;21594;49.794;18.652;2022-07-09T02:04:00;6.10;;;1.70;;
35478;SDS011;21594;49.794;18.652;2022-07-09T02:06:27;4.20;;;1.20;;
35478;SDS011;21594;49.794;18.652;2022-07-09T02:08:53;5.00;;;1.60;;
35478;SDS011;21594;49.794;18.652;2022-07-09T02:11:22;3.17;;;1.57;;
35478;SDS011;21594;49.794;18.652;2022-07-09T02:13:50;8.00;;;1.80;;
35478;SDS011;21594;49.794;18.652;2022-07-09T02:16:16;4.08;;;1.77;;
35478;SDS011;21594;49.794;18.652;2022-07-09T02:18:43;4.28;;;1.62;;
35478;SDS011;21594;49.794;18.652;2022-07-09T02:21:09;4.95;;;1.90;;
35478;SDS011;21594;49.794;18.652;2022-07-09T02:23:35;4.97;;;1.80;;
35478;SDS011;21594;49.794;18.652;2022-07-09T02:26:02;5.53;;;1.80;;
35478;SDS011;21594;49.794;18.652;2022-07-09T02:28:32;4.53;;;1.67;;
35478;SDS011;21594;49.794;18.652;2022-07-09T02:31:00;4.00;;;1.50;;
35478;SDS011;21594;49.794;18.652;2022-07-09T02:33:27;4.28;;;1.80;;
35478;SDS011;21594;49.794;18.652;2022-07-09T02:38:30;6.25;;;1.55;;
35478;SDS011;21594;49.794;18.652;2022-07-09T02:40:56;3.60;;;1.52;;
35478;SDS011;21594;49.794;18.652;2022-07-09T02:43:28;3.90;;;1.50;;
35478;SDS011;21594;49.794;18.652;2022-07-09T02:45:54;3.65;;;1.40;;
35478;SDS011;21594;49.794;18.652;2022-07-09T02:48:21;4.42;;;1.60;;
35478;SDS011;21594;49.794;18.652;2022-07-09T02:50:51;3.15;;;1.80;;
35478;SDS011;21594;49.794;18.652;2022-07-09T02:53:18;5.55;;;1.55;;
35478;SDS011;21594;49.794;18.652;2022-07-09T02:55:49;6.25;;;1.40;;
35478;SDS011;21594;49.794;18.652;2022-07-09T03:00:44;5.45;;;1.40;;
35478;SDS011;21594;49.794;18.652;2022-07-09T03:03:13;2.08;;;1.30;;
35478;SDS011;21594;49.794;18.652;2022-07-09T03:05:39;5.65;;;1.45;;
35478;SDS011;21594;49.794;18.652;2022-07-09T03:08:05;5.53;;;1.37;;
35478;SDS011;21594;49.794;18.652;2022-07-09T03:10:33;3.60;;;1.20;;
35478;SDS011;21594;49.794;18.652;2022-07-09T03:13:01;5.78;;;1.50;;
35478;SDS011;21594;49.794;18.652;2022-07-09T03:15:27;7.40;;;1.75;;
35478;SDS011;21594;49.794;18.652;2022-07-09T03:17:53;4.62;;;1.20;;
35478;SDS011;21594;49.794;18.652;2022-07-09T03:20:19;2.52;;;1.35;;
35478;SDS011;21594;49.794;18.652;2022-07-09T03:22:46;5.55;;;1.70;;
35478;SDS011;21594;49.794;18.652;2022-07-09T03:25:12;5.03;;;1.45;;
35478;SDS011;21594;49.794;18.652;2022-07-09T03:27:38;3.83;;;1.30;;
35478;SDS011;21594;49.794;18.652;2022-07-09T03:30:05;3.02;;;1.17;;
35478;SDS011;21594;49.794;18.652;2022-07-09T03:32:32;5.22;;;1.90;;
35478;SDS011;21594;49.794;18.652;2022-07-09T03:34:59;5.03;;;1.25;;
35478;SDS011;21594;49.794;18.652;2022-07-09T03:37:26;4.25;;;1.32;;
35478;SDS011;21594;49.794;18.652;2022-07-09T03:39:52;2.65;;;1.30;;
35478;SDS011;21594;49.794;18.652;2022-07-09T03:42:27;4.58;;;2.12;;
35478;SDS011;21594;49.794;18.652;2022-07-09T03:44:53;6.15;;;1.47;;
35478;SDS011;21594;49.794;18.652;2022-07-09T03:47:21;4.67;;;2.15;;
35478;SDS011;21594;49.794;18.652;2022-07-09T03:49:51;5.15;;;1.55;;
35478;SDS011;21594;49.794;18.652;2022-07-09T03:54:44;3.17;;;1.05;;
35478;SDS011;21594;49.794;18.652;2022-07-09T03:57:16;3.60;;;1.47;;
35478;SDS011;21594;49.794;18.652;2022-07-09T03:59:43;6.28;;;1.60;;
35478;SDS011;21594;49.794;18.652;2022-07-09T04:02:09;5.92;;;1.52;;
35478;SDS011;21594;49.794;18.652;2022-07-09T04:04:35;5.83;;;1.30;;
35478;SDS011;21594;49.794;18.652;2022-07-09T04:07:03;5.08;;;1.17;;
35478;SDS011;21594;49.794;18.652;2022-07-09T04:09:39;4.97;;;1.47;;
35478;SDS011;21594;49.794;18.652;2022-07-09T04:12:06;4.72;;;1.50;;
35478;SDS011;21594;49.794;18.652;2022-07-09T04:14:39;6.28;;;1.65;;
35478;SDS011;21594;49.794;18.652;2022-07-09T04:17:11;3.80;;;1.50;;
35478;SDS011;21594;49.794;18.652;2022-07-09T04:19:38;2.87;;;1.30;;
35478;SDS011;21594;49.794;18.652;2022-07-09T04:22:10;4.35;;;1.72;;
35478;SDS011;21594;49.794;18.652;2022-07-09T04:27:06;5.70;;;1.45;;
35478;SDS011;21594;49.794;18.652;2022-07-09T04:29:32;4.40;;;2.08;;
35478;SDS011;21594;49.794;18.652;2022-07-09T04:31:59;5.72;;;1.55;;
35478;SDS011;21594;49.794;18.652;2022-07-09T04:34:31;1.90;;;1.32;;
35478;SDS011;21594;49.794;18.652;2022-07-09T04:36:57;4.33;;;1.15;;
35478;SDS011;21594;49.794;18.652;2022-07-09T04:39:24;4.47;;;1.32;;
35478;SDS011;21594;49.794;18.652;2022-07-09T04:41:51;3.77;;;1.45;;
35478;SDS011;21594;49.794;18.652;2022-07-09T04:44:17;5.87;;;2.12;;
35478;SDS011;21594;49.794;18.652;2022-07-09T04:49:18;3.67;;;1.57;;
35478;SDS011;21594;49.794;18.652;2022-07-09T04:51:46;3.47;;;1.32;;
35478;SDS011;21594;49.794;18.652;2022-07-09T04:54:12;6.28;;;1.72;;
35478;SDS011;21594;49.794;18.652;2022-07-09T04:56:47;2.22;;;1.72;;
35478;SDS011;21594;49.794;18.652;2022-07-09T04:59:13;5.78;;;1.37;;
35478;SDS011;21594;49.794;18.652;2022-07-09T05:01:40;7.87;;;1.70;;
35478;SDS011;21594;49.794;18.652;2022-07-09T05:04:07;3.92;;;1.40;;
35478;SDS011;21594;49.794;18.652;2022-07-09T05:06:33;4.33;;;1.57;;
35478;SDS011;21594;49.794;18.652;2022-07-09T05:08:59;5.90;;;1.60;;
35478;SDS011;21594;49.794;18.652;2022-07-09T05:11:25;4.30;;;1.30;;
35478;SDS011;21594;49.794;18.652;2022-07-09T05:13:51;6.92;;;1.70;;
35478;SDS011;21594;49.794;18.652;2022-07-09T05:16:17;3.70;;;1.47;;
35478;SDS011;21594;49.794;18.652;2022-07-09T05:18:44;6.12;;;1.52;;
35478;SDS011;21594;49.794;18.652;2022-07-09T05:21:10;4.15;;;1.72;;
35478;SDS011;21594;49.794;18.652;2022-07-09T05:23:36;2.87;;;1.55;;
35478;SDS011;21594;49.794;18.652;2022-07-09T05:26:04;3.12;;;1.57;;
35478;SDS011;21594;49.794;18.652;2022-07-09T05:28:33;4.67;;;1.42;;
35478;SDS011;21594;49.794;18.652;2022-07-09T05:30:59;3.25;;;1.70;;
35478;SDS011;21594;49.794;18.652;2022-07-09T05:33:25;4.58;;;1.40;;
35478;SDS011;21594;49.794;18.652;2022-07-09T05:35:51;2.17;;;1.15;;
35478;SDS011;21594;49.794;18.652;2022-07-09T05:38:24;2.75;;;1.20;;
35478;SDS011;21594;49.794;18.652;2022-07-09T05:40:51;2.05;;;1.25;;
35478;SDS011;21594;49.794;18.652;2022-07-09T05:43:17;3.98;;;1.27;;
35478;SDS011;21594;49.794;18.652;2022-07-09T05:45:43;2.30;;;1.25;;
35478;SDS011;21594;49.794;18.652;2022-07-09T05:48:09;3.50;;;1.20;;
35478;SDS011;21594;49.794;18.652;2022-07-09T05:50:35;3.77;;;1.30;;
35478;SDS011;21594;49.794;18.652;2022-07-09T05:53:01;1.98;;;1.15;;
35478;SDS011;21594;49.794;18.652;2022-07-09T05:55:27;4.37;;;1.22;;
35478;SDS011;21594;49.794;18.652;2022-07-09T05:57:59;4.65;;;1.00;;
35478;SDS011;21594;49.794;18.652;2022-07-09T06:00:25;3.02;;;1.25;;
35478;SDS011;21594;49.794;18.652;2022-07-09T06:03:00;2.95;;;1.20;;
35478;SDS011;21594;49.794;18.652;2022-07-09T06:05:27;3.08;;;1.42;;
35478;SDS011;21594;49.794;18.652;2022-07-09T06:08:00;3.47;;;1.45;;
35478;SDS011;21594;49.794;18.652;2022-07-09T06:10:26;2.67;;;1.07;;
35478;SDS011;21594;49.794;18.652;2022-07-09T06:12:53;3.90;;;1.20;;
35478;SDS011;21594;49.794;18.652;2022-07-09T06:15:20;3.83;;;1.37;;
35478;SDS011;21594;49.794;18.652;2022-07-09T06:17:46;2.27;;;0.98;;
35478;SDS011;21594;49.794;18.652;2022-07-09T06:20:12;2.77;;;1.10;;
35478;SDS011;21594;49.794;18.652;2022-07-09T06:22:38;2.17;;;1.07;;
35478;SDS011;21594;49.794;18.652;2022-07-09T06:25:05;2.87;;;1.20;;
35478;SDS011;21594;49.794;18.652;2022-07-09T06:27:35;1.67;;;0.93;;
35478;SDS011;21594;49.794;18.652;2022-07-09T06:32:41;4.30;;;1.20;;
35478;SDS011;21594;49.794;18.652;2022-07-09T06:35:08;3.08;;;1.35;;
35478;SDS011;21594;49.794;18.652;2022-07-09T06:37:34;2.33;;;1.00;;
35478;SDS011;21594;49.794;18.652;2022-07-09T06:40:00;2.08;;;1.00;;
35478;SDS011;21594;49.794;18.652;2022-07-09T06:42:27;2.02;;;0.82;;
35478;SDS011;21594;49.794;18.652;2022-07-09T06:44:55;3.30;;;1.30;;
35478;SDS011;21594;49.794;18.652;2022-07-09T06:47:21;2.22;;;1.47;;
35478;SDS011;21594;49.794;18.652;2022-07-09T06:49:52;5.28;;;1.47;;
35478;SDS011;21594;49.794;18.652;2022-07-09T06:52:19;3.62;;;1.37;;
35478;SDS011;21594;49.794;18.652;2022-07-09T06:54:45;5.33;;;2.15;;
35478;SDS011;21594;49.794;18.652;2022-07-09T06:57:14;3.35;;;1.27;;
35478;SDS011;21594;49.794;18.652;2022-07-09T06:59:42;3.95;;;1.30;;
35478;SDS011;21594;49.794;18.652;2022-07-09T07:02:11;3.00;;;1.12;;
35478;SDS011;21594;49.794;18.652;2022-07-09T07:04:36;3.05;;;1.30;;
35478;SDS011;21594;49.794;18.652;2022-07-09T07:07:02;1.95;;;0.80;;
35478;SDS011;21594;49.794;18.652;2022-07-09T07:09:32;2.10;;;0.80;;
35478;SDS011;21594;49.794;18.652;2022-07-09T07:11:58;1.67;;;0.90;;
35478;SDS011;21594;49.794;18.652;2022-07-09T07:14:24;2.52;;;1.05;;
35478;SDS011;21594;49.794;18.652;2022-07-09T07:16:50;2.80;;;1.00;;
35478;SDS011;21594;49.794;18.652;2022-07-09T07:19:18;1.65;;;0.98;;
35478;SDS011;21594;49.794;18.652;2022-07-09T07:21:48;3.15;;;1.10;;
35478;SDS011;21594;49.794;18.652;2022-07-09T07:24:15;2.22;;;1.00;;
35478;SDS011;21594;49.794;18.652;2022-07-09T07:26:41;2.62;;;1.30;;
35478;SDS011;21594;49.794;18.652;2022-07-09T07:29:07;2.27;;;1.05;;
35478;SDS011;21594;49.794;18.652;2022-07-09T07:31:33;4.08;;;1.30;;
35478;SDS011;21594;49.794;18.652;2022-07-09T07:34:00;5.08;;;1.17;;
35478;SDS011;21594;49.794;18.652;2022-07-09T07:36:26;2.62;;;0.98;;
35478;SDS011;21594;49.794;18.652;2022-07-09T07:38:56;2.05;;;0.90;;
35478;SDS011;21594;49.794;18.652;2022-07-09T07:41:25;2.60;;;0.82;;
35478;SDS011;21594;49.794;18.652;2022-07-09T07:43:52;3.08;;;0.80;;
35478;SDS011;21594;49.794;18.652;2022-07-09T07:46:18;4.08;;;0.90;;
35478;SDS011;21594;49.794;18.652;2022-07-09T07:48:44;1.92;;;0.80;;
35478;SDS011;21594;49.794;18.652;2022-07-09T07:51:10;3.62;;;1.07;;
35478;SDS011;21594;49.794;18.652;2022-07-09T07:53:37;1.77;;;0.72;;
35478;SDS011;21594;49.794;18.652;2022-07-09T07:56:04;1.75;;;0.90;;
35478;SDS011;21594;49.794;18.652;2022-07-09T07:58:31;2.42;;;0.90;;
35478;SDS011;21594;49.794;18.652;2022-07-09T08:00:58;1.77;;;0.80;;
35478;SDS011;21594;49.794;18.652;2022-07-09T08:03:24;2.37;;;0.80;;
35478;SDS011;21594;49.794;18.652;2022-07-09T08:05:50;2.15;;;0.68;;
35478;SDS011;21594;49.794;18.652;2022-07-09T08:08:17;2.05;;;1.02;;
35478;SDS011;21594;49.794;18.652;2022-07-09T08:10:51;1.05;;;0.60;;
35478;SDS011;21594;49.794;18.652;2022-07-09T08:13:15;1.07;;;0.70;;
35478;SDS011;21594;49.794;18.652;2022-07-09T08:15:42;1.05;;;0.50;;
35478;SDS011;21594;49.794;18.652;2022-07-09T08:18:08;1.65;;;0.53;;
35478;SDS011;21594;49.794;18.652;2022-07-09T08:20:36;2.77;;;0.65;;
35478;SDS011;21594;49.794;18.652;2022-07-09T08:23:03;1.82;;;0.80;;
35478;SDS011;21594;49.794;18.652;2022-07-09T08:25:29;2.90;;;0.62;;
35478;SDS011;21594;49.794;18.652;2022-07-09T08:27:55;1.27;;;0.70;;
35478;SDS011;21594;49.794;18.652;2022-07-09T08:30:22;2.75;;;1.00;;
35478;SDS011;21594;49.794;18.652;2022-07-09T08:32:48;1.55;;;0.65;;
35478;SDS011;21594;49.794;18.652;2022-07-09T08:35:14;1.72;;;0.80;;
35478;SDS011;21594;49.794;18.652;2022-07-09T08:37:40;1.37;;;0.80;;
35478;SDS011;21594;49.794;18.652;2022-07-09T08:40:07;2.92;;;0.70;;
35478;SDS011;21594;49.794;18.652;2022-07-09T08:42:34;1.12;;;0.70;;
35478;SDS011;21594;49.794;18.652;2022-07-09T08:45:00;3.22;;;0.80;;
35478;SDS011;21594;49.794;18.652;2022-07-09T08:47:27;2.42;;;0.70;;
35478;SDS011;21594;49.794;18.652;2022-07-09T08:50:01;2.12;;;1.42;;
35478;SDS011;21594;49.794;18.652;2022-07-09T08:52:27;1.70;;;0.70;;
35478;SDS011;21594;49.794;18.652;2022-07-09T08:54:54;0.95;;;0.80;;
35478;SDS011;21594;49.794;18.652;2022-07-09T08:57:20;2.95;;;0.82;;
35478;SDS011;21594;49.794;18.652;2022-07-09T08:59:47;2.55;;;0.88;;
35478;SDS011;21594;49.794;18.652;2022-07-09T09:02:13;1.45;;;0.88;;
35478;SDS011;21594;49.794;18.652;2022-07-09T09:04:40;2.65;;;0.80;;
35478;SDS011;21594;49.794;18.652;2022-07-09T09:07:13;2.70;;;1.25;;
35478;SDS011;21594;49.794;18.652;2022-07-09T09:09:48;1.32;;;0.93;;
35478;SDS011;21594;49.794;18.652;2022-07-09T09:12:15;1.32;;;0.70;;
35478;SDS011;21594;49.794;18.652;2022-07-09T09:14:49;3.95;;;1.00;;
35478;SDS011;21594;49.794;18.652;2022-07-09T09:17:15;1.60;;;0.93;;
35478;SDS011;21594;49.794;18.652;2022-07-09T09:19:44;1.77;;;0.82;;
35478;SDS011;21594;49.794;18.652;2022-07-09T09:22:14;1.37;;;0.62;;
35478;SDS011;21594;49.794;18.652;2022-07-09T09:24:46;3.12;;;1.00;;
35478;SDS011;21594;49.794;18.652;2022-07-09T09:27:15;6.22;;;1.02;;
35478;SDS011;21594;49.794;18.652;2022-07-09T09:29:49;1.72;;;0.72;;
35478;SDS011;21594;49.794;18.652;2022-07-09T09:32:24;3.77;;;1.37;;
35478;SDS011;21594;49.794;18.652;2022-07-09T09:34:50;2.47;;;1.20;;
35478;SDS011;21594;49.794;18.652;2022-07-09T09:37:27;3.00;;;0.90;;
35478;SDS011;21594;49.794;18.652;2022-07-09T09:39:54;4.15;;;1.20;;
35478;SDS011;21594;49.794;18.652;2022-07-09T09:42:22;4.53;;;1.07;;
35478;SDS011;21594;49.794;18.652;2022-07-09T09:44:50;2.25;;;1.00;;
35478;SDS011;21594;49.794;18.652;2022-07-09T09:47:18;4.53;;;1.52;;
35478;SDS011;21594;49.794;18.652;2022-07-09T09:49:48;1.42;;;0.90;;
35478;SDS011;21594;49.794;18.652;2022-07-09T09:52:19;1.82;;;1.10;;
35478;SDS011;21594;49.794;18.652;2022-07-09T09:54:47;2.87;;;1.42;;
35478;SDS011;21594;49.794;18.652;2022-07-09T09:57:14;2.72;;;1.45;;
35478;SDS011;21594;49.794;18.652;2022-07-09T09:59:44;5.33;;;1.92;;
35478;SDS011;21594;49.794;18.652;2022-07-09T10:02:11;3.17;;;1.80;;
35478;SDS011;21594;49.794;18.652;2022-07-09T10:04:39;3.87;;;2.33;;
35478;SDS011;21594;49.794;18.652;2022-07-09T10:07:08;3.25;;;1.95;;
35478;SDS011;21594;49.794;18.652;2022-07-09T10:09:55;3.62;;;2.10;;
35478;SDS011;21594;49.794;18.652;2022-07-09T10:12:32;2.75;;;1.45;;
35478;SDS011;21594;49.794;18.652;2022-07-09T10:15:25;3.95;;;1.82;;
35478;SDS011;21594;49.794;18.652;2022-07-09T10:17:47;3.47;;;1.50;;
35478;SDS011;21594;49.794;18.652;2022-07-09T10:20:14;3.08;;;1.70;;
35478;SDS011;21594;49.794;18.652;2022-07-09T10:25:22;4.12;;;2.00;;
35478;SDS011;21594;49.794;18.652;2022-07-09T10:27:52;3.47;;;1.95;;
35478;SDS011;21594;49.794;18.652;2022-07-09T10:30:25;3.15;;;1.75;;
35478;SDS011;21594;49.794;18.652;2022-07-09T10:33:02;1.87;;;1.35;;
35478;SDS011;21594;49.794;18.652;2022-07-09T10:35:31;6.15;;;1.60;;
35478;SDS011;21594;49.794;18.652;2022-07-09T10:37:59;2.85;;;1.70;;
35478;SDS011;21594;49.794;18.652;2022-07-09T10:40:36;4.12;;;2.30;;
35478;SDS011;21594;49.794;18.652;2022-07-09T10:42:58;1.90;;;1.35;;
35478;SDS011;21594;49.794;18.652;2022-07-09T10:45:29;5.25;;;1.80;;
35478;SDS011;21594;49.794;18.652;2022-07-09T10:48:00;2.58;;;1.80;;
35478;SDS011;21594;49.794;18.652;2022-07-09T10:50:30;3.35;;;1.70;;
35478;SDS011;21594;49.794;18.652;2022-07-09T10:52:57;3.42;;;1.70;;
35478;SDS011;21594;49.794;18.652;2022-07-09T10:55:26;2.37;;;1.50;;
35478;SDS011;21594;49.794;18.652;2022-07-09T10:57:53;3.22;;;1.95;;
35478;SDS011;21594;49.794;18.652;2022-07-09T11:00:22;4.70;;;1.90;;
35478;SDS011;21594;49.794;18.652;2022-07-09T11:03:03;3.30;;;1.40;;
35478;SDS011;21594;49.794;18.652;2022-07-09T11:05:33;4.62;;;1.60;;
35478;SDS011;21594;49.794;18.652;2022-07-09T11:08:09;4.05;;;1.50;;
35478;SDS011;21594;49.794;18.652;2022-07-09T11:10:43;3.95;;;1.27;;
35478;SDS011;21594;49.794;18.652;2022-07-09T11:13:09;2.55;;;1.30;;
35478;SDS011;21594;49.794;18.652;2022-07-09T11:15:36;1.57;;;1.20;;
35478;SDS011;21594;49.794;18.652;2022-07-09T11:18:08;1.70;;;0.98;;
35478;SDS011;21594;49.794;18.652;2022-07-09T11:20:36;2.08;;;1.17;;
35478;SDS011;21594;49.794;18.652;2022-07-09T11:23:16;3.17;;;1.05;;
35478;SDS011;21594;49.794;18.652;2022-07-09T11:25:44;1.42;;;0.90;;
35478;SDS011;21594;49.794;18.652;2022-07-09T11:28:19;3.15;;;1.20;;
35478;SDS011;21594;49.794;18.652;2022-07-09T11:30:56;1.77;;;0.90;;
35478;SDS011;21594;49.794;18.652;2022-07-09T11:33:33;1.42;;;0.90;;
35478;SDS011;21594;49.794;18.652;2022-07-09T11:36:21;2.37;;;1.20;;
35478;SDS011;21594;49.794;18.652;2022-07-09T11:38:49;1.10;;;0.80;;
35478;SDS011;21594;49.794;18.652;2022-07-09T11:41:22;2.22;;;1.10;;
35478;SDS011;21594;49.794;18.652;2022-07-09T11:43:49;1.72;;;0.95;;
35478;SDS011;21594;49.794;18.652;2022-07-09T11:46:23;1.72;;;0.95;;
35478;SDS011;21594;49.794;18.652;2022-07-09T11:51:27;2.90;;;1.20;;
35478;SDS011;21594;49.794;18.652;2022-07-09T11:53:57;2.00;;;1.10;;
35478;SDS011;21594;49.794;18.652;2022-07-09T11:56:39;1.65;;;1.00;;
35478;SDS011;21594;49.794;18.652;2022-07-09T11:59:09;2.72;;;1.10;;
35478;SDS011;21594;49.794;18.652;2022-07-09T12:01:39;2.17;;;1.17;;
35478;SDS011;21594;49.794;18.652;2022-07-09T12:04:05;1.80;;;0.98;;
35478;SDS011;21594;49.794;18.652;2022-07-09T12:06:32;1.62;;;0.80;;
35478;SDS011;21594;49.794;18.652;2022-07-09T12:08:59;1.57;;;0.90;;
35478;SDS011;21594;49.794;18.652;2022-07-09T12:11:27;2.45;;;1.02;;
35478;SDS011;21594;49.794;18.652;2022-07-09T12:13:55;5.12;;;1.50;;
35478;SDS011;21594;49.794;18.652;2022-07-09T12:16:21;1.75;;;0.90;;
35478;SDS011;21594;49.794;18.652;2022-07-09T12:18:48;1.80;;;0.70;;
35478;SDS011;21594;49.794;18.652;2022-07-09T12:21:14;2.25;;;1.10;;
35478;SDS011;21594;49.794;18.652;2022-07-09T12:23:40;2.05;;;1.10;;
35478;SDS011;21594;49.794;18.652;2022-07-09T12:26:06;2.27;;;1.07;;
35478;SDS011;21594;49.794;18.652;2022-07-09T12:28:32;1.85;;;1.10;;
35478;SDS011;21594;49.794;18.652;2022-07-09T12:31:00;1.70;;;0.90;;
35478;SDS011;21594;49.794;18.652;2022-07-09T12:33:27;2.35;;;0.88;;
35478;SDS011;21594;49.794;18.652;2022-07-09T12:35:53;4.25;;;1.17;;
35478;SDS011;21594;49.794;18.652;2022-07-09T12:38:25;2.02;;;1.10;;
35478;SDS011;21594;49.794;18.652;2022-07-09T12:40:53;2.02;;;1.05;;
35478;SDS011;21594;49.794;18.652;2022-07-09T12:43:19;3.20;;;1.30;;
35478;SDS011;21594;49.794;18.652;2022-07-09T12:45:51;1.45;;;1.05;;
35478;SDS011;21594;49.794;18.652;2022-07-09T12:48:17;1.72;;;1.20;;
35478;SDS011;21594;49.794;18.652;2022-07-09T12:50:44;2.30;;;0.90;;
35478;SDS011;21594;49.794;18.652;2022-07-09T12:53:13;1.05;;;1.00;;
35478;SDS011;21594;49.794;18.652;2022-07-09T12:55:40;2.40;;;0.88;;
35478;SDS011;21594;49.794;18.652;2022-07-09T12:58:06;1.27;;;0.88;;
35478;SDS011;21594;49.794;18.652;2022-07-09T13:00:34;1.20;;;1.00;;
35478;SDS011;21594;49.794;18.652;2022-07-09T13:03:01;2.22;;;0.93;;
35478;SDS011;21594;49.794;18.652;2022-07-09T13:05:28;1.70;;;0.98;;
35478;SDS011;21594;49.794;18.652;2022-07-09T13:07:54;1.05;;;0.90;;
35478;SDS011;21594;49.794;18.652;2022-07-09T13:10:20;2.12;;;0.80;;
35478;SDS011;21594;49.794;18.652;2022-07-09T13:13:03;0.80;;;0.70;;
35478;SDS011;21594;49.794;18.652;2022-07-09T13:15:31;2.12;;;0.80;;
35478;SDS011;21594;49.794;18.652;2022-07-09T13:18:03;1.52;;;1.10;;
35478;SDS011;21594;49.794;18.652;2022-07-09T13:20:30;1.52;;;0.82;;
35478;SDS011;21594;49.794;18.652;2022-07-09T13:22:56;1.95;;;0.95;;
35478;SDS011;21594;49.794;18.652;2022-07-09T13:25:25;0.95;;;0.78;;
35478;SDS011;21594;49.794;18.652;2022-07-09T13:27:53;1.52;;;0.85;;
35478;SDS011;21594;49.794;18.652;2022-07-09T13:30:20;1.17;;;0.70;;
35478;SDS011;21594;49.794;18.652;2022-07-09T13:32:47;1.72;;;0.72;;
35478;SDS011;21594;49.794;18.652;2022-07-09T13:35:13;1.60;;;0.85;;
35478;SDS011;21594;49.794;18.652;2022-07-09T13:37:40;1.65;;;0.70;;
35478;SDS011;21594;49.794;18.652;2022-07-09T13:40:07;0.93;;;0.78;;
35478;SDS011;21594;49.794;18.652;2022-07-09T13:42:34;1.72;;;0.80;;
35478;SDS011;21594;49.794;18.652;2022-07-09T13:45:00;1.20;;;0.80;;
35478;SDS011;21594;49.794;18.652;2022-07-09T13:47:26;1.02;;;0.85;;
35478;SDS011;21594;49.794;18.652;2022-07-09T13:49:52;1.10;;;0.53;;
35478;SDS011;21594;49.794;18.652;2022-07-09T13:52:19;1.05;;;0.78;;
35478;SDS011;21594;49.794;18.652;2022-07-09T13:54:45;1.95;;;0.82;;
35478;SDS011;21594;49.794;18.652;2022-07-09T13:57:11;1.62;;;0.70;;
35478;SDS011;21594;49.794;18.652;2022-07-09T13:59:38;0.70;;;0.50;;
35478;SDS011;21594;49.794;18.652;2022-07-09T14:02:05;0.95;;;0.60;;
35478;SDS011;21594;49.794;18.652;2022-07-09T14:04:32;2.50;;;0.82;;
35478;SDS011;21594;49.794;18.652;2022-07-09T14:06:58;0.62;;;0.60;;
35478;SDS011;21594;49.794;18.652;2022-07-09T14:09:24;2.67;;;0.50;;
35478;SDS011;21594;49.794;18.652;2022-07-09T14:11:56;0.75;;;0.50;;
35478;SDS011;21594;49.794;18.652;2022-07-09T14:14:22;1.10;;;0.60;;
35478;SDS011;21594;49.794;18.652;2022-07-09T14:16:48;0.55;;;0.45;;
35478;SDS011;21594;49.794;18.652;2022-07-09T14:19:14;1.17;;;0.78;;
35478;SDS011;21594;49.794;18.652;2022-07-09T14:21:42;0.88;;;0.57;;
35478;SDS011;21594;49.794;18.652;2022-07-09T14:24:08;1.65;;;0.60;;
35478;SDS011;21594;49.794;18.652;2022-07-09T14:26:37;0.70;;;0.50;;
35478;SDS011;21594;49.794;18.652;2022-07-09T14:29:07;1.00;;;0.42;;
35478;SDS011;21594;49.794;18.652;2022-07-09T14:31:34;1.27;;;0.37;;
35478;SDS011;21594;49.794;18.652;2022-07-09T14:34:06;0.95;;;0.50;;
35478;SDS011;21594;49.794;18.652;2022-07-09T14:36:35;0.95;;;0.53;;
35478;SDS011;21594;49.794;18.652;2022-07-09T14:39:02;1.00;;;0.68;;
35478;SDS011;21594;49.794;18.652;2022-07-09T14:41:29;1.10;;;0.45;;
35478;SDS011;21594;49.794;18.652;2022-07-09T14:44:02;1.35;;;0.50;;
35478;SDS011;21594;49.794;18.652;2022-07-09T14:46:31;0.70;;;0.40;;
35478;SDS011;21594;49.794;18.652;2022-07-09T14:49:02;0.47;;;0.40;;
35478;SDS011;21594;49.794;18.652;2022-07-09T14:51:28;0.35;;;0.35;;
35478;SDS011;21594;49.794;18.652;2022-07-09T14:53:54;1.82;;;0.37;;
35478;SDS011;21594;49.794;18.652;2022-07-09T14:56:23;3.02;;;1.12;;
35478;SDS011;21594;49.794;18.652;2022-07-09T14:58:49;0.88;;;0.40;;
35478;SDS011;21594;49.794;18.652;2022-07-09T15:01:16;0.85;;;0.40;;
35478;SDS011;21594;49.794;18.652;2022-07-09T15:03:51;2.00;;;0.50;;
35478;SDS011;21594;49.794;18.652;2022-07-09T15:06:21;1.52;;;0.42;;
35478;SDS011;21594;49.794;18.652;2022-07-09T15:08:51;1.82;;;0.45;;